Time;durP1;ratioP1;P1;durP2;ratioP2;P2;SDS_P1;SDS_P2;PMS_P1;PMS_P2;Temp;Humidity;BMP_temperature;BMP_pressure;BME280_temperature;BME280_humidity;BME280_pressure;Samples;Min_cycle;Max_cycle;Signal;HPM_P1;HPM_P2
2023/09/09 00:01:22;;;;;;;10.60;9.50;;;;;;;;;;5053055;28;20494;-76
2023/09/09 00:03:50;;;;;;;13.33;9.10;;;;;;;;;;5052589;28;20438;-76
2023/09/09 00:06:17;;;;;;;12.00;9.83;;;;;;;;;;5052969;28;20440;-76
2023/09/09 00:08:45;;;;;;;11.20;9.90;;;;;;;;;;5052923;28;20433;-76
2023/09/09 00:11:12;;;;;;;9.17;8.27;;;;;;;;;;5052909;28;20433;-76
2023/09/09 00:13:39;;;;;;;9.40;8.50;;;;;;;;;;5052654;28;20433;-76
2023/09/09 00:16:06;;;;;;;11.70;10.50;;;;;;;;;;5052815;28;20492;-76
2023/09/09 00:18:35;;;;;;;11.43;10.33;;;;;;;;;;5052868;28;20520;-76
2023/09/09 00:21:04;;;;;;;10.73;9.83;;;;;;;;;;5053038;28;20437;-76
2023/09/09 00:23:32;;;;;;;11.43;9.30;;;;;;;;;;5052841;28;20441;-76
2023/09/09 00:25:59;;;;;;;9.37;8.47;;;;;;;;;;5052721;28;20429;-76
2023/09/09 00:28:26;;;;;;;9.10;8.20;;;;;;;;;;5052948;28;20433;-76
2023/09/09 00:30:54;;;;;;;9.27;8.30;;;;;;;;;;5052467;28;20549;-76
2023/09/09 00:33:21;;;;;;;11.37;10.23;;;;;;;;;;5052773;28;20433;-76
2023/09/09 00:35:50;;;;;;;10.63;9.63;;;;;;;;;;5052797;28;20434;-76
2023/09/09 00:38:17;;;;;;;10.93;9.93;;;;;;;;;;5052415;28;20429;-76
2023/09/09 00:40:45;;;;;;;10.53;9.53;;;;;;;;;;5052650;28;20556;-76
2023/09/09 00:43:13;;;;;;;12.23;11.07;;;;;;;;;;5052464;28;20488;-76
2023/09/09 00:45:40;;;;;;;12.07;10.30;;;;;;;;;;5053269;28;20441;-76
2023/09/09 00:48:08;;;;;;;11.60;9.97;;;;;;;;;;5056163;28;20487;-76
2023/09/09 00:50:35;;;;;;;12.20;11.10;;;;;;;;;;5055785;28;20661;-76
2023/09/09 00:53:04;;;;;;;13.30;11.03;;;;;;;;;;5055804;28;20495;-76
2023/09/09 00:55:39;;;;;;;10.60;8.80;;;;;;;;;;5055780;28;20839;-77
2023/09/09 00:58:06;;;;;;;12.07;10.90;;;;;;;;;;5055921;28;20468;-76
2023/09/09 01:00:37;;;;;;;12.17;10.97;;;;;;;;;;5056048;28;20854;-76
2023/09/09 01:03:05;;;;;;;10.83;9.60;;;;;;;;;;5055710;28;20489;-76
2023/09/09 01:05:33;;;;;;;12.60;11.20;;;;;;;;;;5055883;28;20851;-76
2023/09/09 01:08:01;;;;;;;11.93;10.80;;;;;;;;;;5055754;28;20471;-76
2023/09/09 01:10:30;;;;;;;17.50;9.93;;;;;;;;;;5055960;28;20534;-76
2023/09/09 01:12:57;;;;;;;10.83;9.60;;;;;;;;;;5055922;28;20441;-76
2023/09/09 01:15:24;;;;;;;10.17;9.17;;;;;;;;;;5055799;28;20495;-76
2023/09/09 01:17:53;;;;;;;10.00;9.10;;;;;;;;;;5055610;28;20434;-76
2023/09/09 01:20:21;;;;;;;14.43;9.73;;;;;;;;;;5055586;28;20798;-76
2023/09/09 01:22:50;;;;;;;8.67;7.73;;;;;;;;;;5055179;28;20476;-76
2023/09/09 01:25:17;;;;;;;9.00;8.20;;;;;;;;;;5055382;28;20437;-76
2023/09/09 01:27:45;;;;;;;10.57;9.50;;;;;;;;;;5055510;28;20433;-76
2023/09/09 01:30:14;;;;;;;7.50;6.80;;;;;;;;;;5055073;28;20551;-76
2023/09/09 01:32:41;;;;;;;6.83;6.17;;;;;;;;;;5055532;28;20429;-76
2023/09/09 01:35:09;;;;;;;9.03;8.23;;;;;;;;;;5055314;28;20479;-76
2023/09/09 01:37:36;;;;;;;13.83;9.50;;;;;;;;;;5054917;28;20515;-76
2023/09/09 01:40:09;;;;;;;10.63;8.90;;;;;;;;;;5055146;28;20832;-76
2023/09/09 01:42:37;;;;;;;9.73;8.83;;;;;;;;;;5055302;28;20516;-76
2023/09/09 01:45:05;;;;;;;9.40;8.50;;;;;;;;;;5055166;28;20469;-76
2023/09/09 01:47:32;;;;;;;9.93;8.70;;;;;;;;;;5055127;28;20441;-76
2023/09/09 01:50:00;;;;;;;9.30;8.27;;;;;;;;;;5054954;28;20477;-76
2023/09/09 01:52:27;;;;;;;10.90;9.67;;;;;;;;;;5054627;28;20943;-75
2023/09/09 01:54:54;;;;;;;9.87;8.90;;;;;;;;;;5054800;28;20437;-76
2023/09/09 01:57:26;;;;;;;10.50;9.40;;;;;;;;;;5054108;28;20476;-75
2023/09/09 01:59:54;;;;;;;13.13;11.83;;;;;;;;;;5054439;28;20476;-76
2023/09/09 02:02:21;;;;;;;9.63;8.63;;;;;;;;;;5054460;28;20480;-76
2023/09/09 02:04:48;;;;;;;9.77;8.90;;;;;;;;;;5054423;28;20912;-76
2023/09/09 02:07:15;;;;;;;11.73;9.37;;;;;;;;;;5054753;28;20429;-76
2023/09/09 02:09:43;;;;;;;11.90;10.73;;;;;;;;;;5054568;28;20477;-76
2023/09/09 02:12:10;;;;;;;9.50;8.60;;;;;;;;;;5054627;28;20495;-76
2023/09/09 02:14:39;;;;;;;8.60;7.73;;;;;;;;;;5054591;28;20449;-76
2023/09/09 02:17:06;;;;;;;10.40;8.37;;;;;;;;;;5054512;28;20437;-76
2023/09/09 02:19:33;;;;;;;8.80;7.90;;;;;;;;;;5054102;28;20437;-76
2023/09/09 02:22:01;;;;;;;9.10;7.47;;;;;;;;;;5054117;28;20445;-76
2023/09/09 02:24:28;;;;;;;8.17;7.40;;;;;;;;;;5054007;28;21026;-76
2023/09/09 02:26:55;;;;;;;9.30;7.97;;;;;;;;;;5053964;28;20433;-76
2023/09/09 02:29:23;;;;;;;9.10;8.20;;;;;;;;;;5053882;28;20935;-76
2023/09/09 02:31:51;;;;;;;13.73;10.70;;;;;;;;;;5054197;28;20437;-76
2023/09/09 02:34:19;;;;;;;10.60;9.50;;;;;;;;;;5053907;28;20942;-76
2023/09/09 02:36:47;;;;;;;9.60;8.60;;;;;;;;;;5054138;28;20438;-76
2023/09/09 02:39:14;;;;;;;8.73;7.93;;;;;;;;;;5054113;28;20438;-76
2023/09/09 02:41:41;;;;;;;10.20;8.30;;;;;;;;;;5053998;28;20441;-76
2023/09/09 02:44:08;;;;;;;8.87;7.97;;;;;;;;;;5054008;28;20507;-76
2023/09/09 02:46:36;;;;;;;7.40;5.70;;;;;;;;;;5054129;28;20490;-76
2023/09/09 02:49:04;;;;;;;6.67;6.00;;;;;;;;;;5053929;28;20487;-76
2023/09/09 02:51:32;;;;;;;8.30;7.40;;;;;;;;;;5053818;28;20563;-76
2023/09/09 02:53:59;;;;;;;6.73;5.70;;;;;;;;;;5053525;28;20437;-76
2023/09/09 02:56:26;;;;;;;6.40;5.80;;;;;;;;;;5053469;28;20460;-76
2023/09/09 02:58:53;;;;;;;6.83;5.67;;;;;;;;;;5053745;28;20468;-76
2023/09/09 03:01:21;;;;;;;8.30;6.80;;;;;;;;;;5053394;28;20461;-76
2023/09/09 03:03:48;;;;;;;7.90;7.20;;;;;;;;;;5053426;28;20928;-76
2023/09/09 03:06:17;;;;;;;8.30;7.07;;;;;;;;;;5053713;28;20465;-76
2023/09/09 03:08:44;;;;;;;6.77;6.17;;;;;;;;;;5052536;28;20490;-76
2023/09/09 03:11:11;;;;;;;6.40;5.80;;;;;;;;;;5053503;28;20564;-76
2023/09/09 03:13:39;;;;;;;7.70;7.00;;;;;;;;;;5053575;28;20434;-76
2023/09/09 03:16:06;;;;;;;8.13;7.20;;;;;;;;;;5053147;28;20445;-76
2023/09/09 03:18:33;;;;;;;6.20;5.63;;;;;;;;;;5053128;28;20433;-76
2023/09/09 03:21:02;;;;;;;6.70;6.10;;;;;;;;;;5053469;28;20437;-76
2023/09/09 03:23:30;;;;;;;6.53;5.93;;;;;;;;;;5053178;28;21015;-75
2023/09/09 03:25:58;;;;;;;5.93;5.43;;;;;;;;;;5052953;28;20440;-76
2023/09/09 03:28:25;;;;;;;5.60;5.10;;;;;;;;;;5053158;28;20441;-76
2023/09/09 03:30:56;;;;;;;8.10;7.33;;;;;;;;;;5052985;28;20523;-76
2023/09/09 03:33:23;;;;;;;7.20;6.50;;;;;;;;;;5053362;28;20441;-76
2023/09/09 03:35:50;;;;;;;8.03;7.30;;;;;;;;;;5053412;28;20434;-76
2023/09/09 03:38:18;;;;;;;8.13;7.33;;;;;;;;;;5053277;28;20792;-76
2023/09/09 03:40:46;;;;;;;8.03;7.23;;;;;;;;;;5053338;28;20448;-76
2023/09/09 03:43:14;;;;;;;8.60;7.70;;;;;;;;;;5053256;28;20437;-76
2023/09/09 03:45:41;;;;;;;9.57;8.60;;;;;;;;;;5052872;28;20432;-76
2023/09/09 03:48:09;;;;;;;11.03;9.93;;;;;;;;;;5052931;28;20445;-76
2023/09/09 03:50:36;;;;;;;9.17;8.13;;;;;;;;;;5052787;28;20824;-76
2023/09/09 03:53:03;;;;;;;8.70;7.90;;;;;;;;;;5053210;28;20433;-76
2023/09/09 03:55:30;;;;;;;8.73;7.83;;;;;;;;;;5053038;28;20460;-76
2023/09/09 03:57:59;;;;;;;10.50;9.50;;;;;;;;;;5052979;28;20429;-76
2023/09/09 04:00:26;;;;;;;12.70;9.00;;;;;;;;;;5052755;28;20469;-75
2023/09/09 04:02:54;;;;;;;9.87;8.40;;;;;;;;;;5053121;28;20429;-76
2023/09/09 04:05:21;;;;;;;9.37;8.47;;;;;;;;;;5052717;28;20439;-76
2023/09/09 04:07:48;;;;;;;11.07;10.07;;;;;;;;;;5053026;28;20486;-76
2023/09/09 04:10:15;;;;;;;10.50;9.50;;;;;;;;;;5052818;28;20550;-75
2023/09/09 04:12:43;;;;;;;11.50;10.40;;;;;;;;;;5052946;28;20432;-75
2023/09/09 04:15:11;;;;;;;9.30;7.83;;;;;;;;;;5052911;28;20441;-76
2023/09/09 04:17:40;;;;;;;9.60;8.73;;;;;;;;;;5052947;28;20438;-76
2023/09/09 04:20:08;;;;;;;9.60;8.80;;;;;;;;;;5054614;28;20465;-76
2023/09/09 04:22:35;;;;;;;9.90;8.77;;;;;;;;;;5056732;28;20435;-76
2023/09/09 04:25:03;;;;;;;8.97;8.17;;;;;;;;;;5056605;28;20487;-76
2023/09/09 04:27:31;;;;;;;10.00;9.10;;;;;;;;;;5056695;28;20428;-76
2023/09/09 04:29:59;;;;;;;9.87;8.53;;;;;;;;;;5056150;28;20536;-76
2023/09/09 04:32:31;;;;;;;11.20;10.10;;;;;;;;;;5056581;28;20438;-76
2023/09/09 04:34:58;;;;;;;11.83;10.70;;;;;;;;;;5056744;28;20422;-76
2023/09/09 04:37:27;;;;;;;9.73;8.73;;;;;;;;;;5056178;28;20490;-76
2023/09/09 04:40:00;;;;;;;9.63;8.63;;;;;;;;;;5056265;28;20441;-76
2023/09/09 04:42:27;;;;;;;10.37;9.20;;;;;;;;;;5056494;28;20422;-75
2023/09/09 04:44:55;;;;;;;11.80;9.43;;;;;;;;;;5056269;28;20503;-75
2023/09/09 04:47:22;;;;;;;10.30;9.03;;;;;;;;;;5055804;28;20521;-76
2023/09/09 04:49:51;;;;;;;7.10;6.50;;;;;;;;;;5055940;28;20799;-76
2023/09/09 04:52:18;;;;;;;8.07;7.30;;;;;;;;;;5055770;28;20610;-76
2023/09/09 04:54:45;;;;;;;7.20;6.50;;;;;;;;;;5055403;28;20433;-76
2023/09/09 04:57:12;;;;;;;8.10;7.20;;;;;;;;;;5055826;28;20440;-76
2023/09/09 04:59:40;;;;;;;6.90;6.20;;;;;;;;;;5055268;28;20464;-76
2023/09/09 05:02:07;;;;;;;6.50;5.77;;;;;;;;;;5055429;28;20915;-76
2023/09/09 05:04:34;;;;;;;5.53;5.03;;;;;;;;;;5055805;28;20499;-76
2023/09/09 05:07:03;;;;;;;8.20;5.97;;;;;;;;;;5055635;28;20433;-76
2023/09/09 05:09:31;;;;;;;7.20;6.20;;;;;;;;;;5055245;28;20433;-76
2023/09/09 05:11:58;;;;;;;6.57;5.97;;;;;;;;;;5055491;28;20839;-76
2023/09/09 05:14:25;;;;;;;6.60;6.00;;;;;;;;;;5055500;28;20586;-76
2023/09/09 05:16:52;;;;;;;7.40;6.33;;;;;;;;;;5055141;28;20437;-76
2023/09/09 05:19:20;;;;;;;7.27;6.57;;;;;;;;;;5055444;28;20469;-75
2023/09/09 05:21:47;;;;;;;7.00;6.00;;;;;;;;;;5055370;28;20449;-76
2023/09/09 05:24:16;;;;;;;7.17;6.33;;;;;;;;;;5054983;28;20426;-76
2023/09/09 05:26:43;;;;;;;6.60;5.90;;;;;;;;;;5054899;28;20460;-76
2023/09/09 05:29:11;;;;;;;7.57;5.53;;;;;;;;;;5054907;28;20441;-76
2023/09/09 05:31:38;;;;;;;8.17;7.37;;;;;;;;;;5054145;28;20465;-76
2023/09/09 05:34:10;;;;;;;7.80;7.00;;;;;;;;;;5054969;28;20522;-75
2023/09/09 05:36:38;;;;;;;8.33;7.53;;;;;;;;;;5055294;28;20449;-75
2023/09/09 05:39:18;;;;;;;7.97;7.17;;;;;;;;;;5055391;28;20440;-76
2023/09/09 05:41:47;;;;;;;7.20;6.50;;;;;;;;;;5054693;28;20436;-75
2023/09/09 05:44:14;;;;;;;7.63;6.60;;;;;;;;;;5054873;28;20434;-76
2023/09/09 05:46:41;;;;;;;8.97;8.03;;;;;;;;;;5054896;28;20449;-75
2023/09/09 05:49:09;;;;;;;8.40;7.40;;;;;;;;;;5054581;28;20997;-76
2023/09/09 05:51:36;;;;;;;7.43;6.70;;;;;;;;;;5054418;28;20542;-76
2023/09/09 05:54:03;;;;;;;8.83;7.00;;;;;;;;;;5054467;28;20928;-76
2023/09/09 05:56:30;;;;;;;8.33;7.53;;;;;;;;;;5054386;28;20434;-75
2023/09/09 05:58:59;;;;;;;9.60;8.60;;;;;;;;;;5054469;28;20480;-76
2023/09/09 06:01:26;;;;;;;9.83;8.80;;;;;;;;;;5054650;28;20503;-76
2023/09/09 06:03:54;;;;;;;10.50;9.60;;;;;;;;;;5054266;28;20920;-76
2023/09/09 06:06:22;;;;;;;9.70;8.70;;;;;;;;;;5054539;28;20442;-76
2023/09/09 06:08:50;;;;;;;9.90;8.90;;;;;;;;;;5054645;28;20429;-75
2023/09/09 06:11:17;;;;;;;9.97;8.97;;;;;;;;;;5054315;28;20560;-76
2023/09/09 06:13:44;;;;;;;9.90;8.90;;;;;;;;;;5054332;28;20464;-76
2023/09/09 06:16:13;;;;;;;12.30;9.07;;;;;;;;;;5053868;28;20955;-76
2023/09/09 06:18:41;;;;;;;11.63;10.43;;;;;;;;;;5053997;28;20842;-76
2023/09/09 06:21:08;;;;;;;9.97;9.07;;;;;;;;;;5054307;28;20528;-76
2023/09/09 06:23:36;;;;;;;10.67;8.80;;;;;;;;;;5054285;28;20495;-75
2023/09/09 06:26:03;;;;;;;12.10;10.80;;;;;;;;;;5053876;28;20437;-76
2023/09/09 06:28:31;;;;;;;9.77;8.77;;;;;;;;;;5054182;28;20437;-76
2023/09/09 06:30:58;;;;;;;11.40;10.30;;;;;;;;;;5053678;28;20505;-75
2023/09/09 06:33:27;;;;;;;12.93;11.60;;;;;;;;;;5053661;28;20441;-76
2023/09/09 06:35:54;;;;;;;13.80;12.50;;;;;;;;;;5053676;28;20842;-76
2023/09/09 06:38:21;;;;;;;13.87;12.57;;;;;;;;;;5053998;28;20433;-75
2023/09/09 06:40:49;;;;;;;14.87;13.40;;;;;;;;;;5053555;28;20433;-75
2023/09/09 06:43:18;;;;;;;13.10;11.87;;;;;;;;;;5053765;28;20481;-76
2023/09/09 06:45:45;;;;;;;12.33;10.93;;;;;;;;;;5053532;28;20487;-76
2023/09/09 06:48:16;;;;;;;11.93;10.73;;;;;;;;;;5053755;28;20437;-76
2023/09/09 06:50:46;;;;;;;13.00;11.70;;;;;;;;;;5053678;28;20783;-76
2023/09/09 06:53:14;;;;;;;12.17;11.03;;;;;;;;;;5053625;28;20479;-75
2023/09/09 06:55:42;;;;;;;11.30;10.30;;;;;;;;;;5053232;28;20448;-76
2023/09/09 06:58:09;;;;;;;13.13;11.63;;;;;;;;;;5053305;28;20489;-76
2023/09/09 07:00:36;;;;;;;11.77;10.67;;;;;;;;;;5053363;28;20448;-76
2023/09/09 07:03:05;;;;;;;13.10;11.70;;;;;;;;;;5053129;28;20953;-76
2023/09/09 07:05:32;;;;;;;11.30;10.30;;;;;;;;;;5053494;28;20433;-76
2023/09/09 07:08:01;;;;;;;11.07;9.97;;;;;;;;;;5053176;28;20503;-76
2023/09/09 07:10:30;;;;;;;11.83;10.63;;;;;;;;;;5053350;28;20457;-76
2023/09/09 07:12:57;;;;;;;11.80;9.63;;;;;;;;;;5052894;28;20500;-76
2023/09/09 07:15:25;;;;;;;13.10;10.67;;;;;;;;;;5053303;28;20460;-76
2023/09/09 07:17:52;;;;;;;11.03;10.03;;;;;;;;;;5053298;28;20437;-76
2023/09/09 07:20:19;;;;;;;11.50;10.40;;;;;;;;;;5053316;28;20437;-76
2023/09/09 07:22:47;;;;;;;14.70;10.90;;;;;;;;;;5052921;28;20445;-76
2023/09/09 07:25:15;;;;;;;10.40;9.50;;;;;;;;;;5053181;28;20441;-76
2023/09/09 07:27:42;;;;;;;10.90;9.80;;;;;;;;;;5052964;28;20446;-76
2023/09/09 07:30:10;;;;;;;10.50;9.50;;;;;;;;;;5052860;28;20468;-76
2023/09/09 07:32:37;;;;;;;10.63;9.57;;;;;;;;;;5052679;28;20559;-74
2023/09/09 07:35:05;;;;;;;11.97;10.93;;;;;;;;;;5052730;28;20460;-73
2023/09/09 07:37:38;;;;;;;11.30;10.37;;;;;;;;;;5052618;28;20496;-74
2023/09/09 07:40:06;;;;;;;11.23;9.97;;;;;;;;;;5052705;28;20447;-74
2023/09/09 07:42:35;;;;;;;10.53;9.53;;;;;;;;;;5053163;28;20452;-74
2023/09/09 07:45:02;;;;;;;9.97;9.00;;;;;;;;;;5052801;28;20440;-73
2023/09/09 07:47:29;;;;;;;8.73;7.87;;;;;;;;;;5053012;28;20449;-74
2023/09/09 07:49:57;;;;;;;9.47;8.70;;;;;;;;;;5052766;28;20939;-74
2023/09/09 07:52:24;;;;;;;10.40;8.53;;;;;;;;;;5053016;28;20484;-74
2023/09/09 07:54:53;;;;;;;9.60;8.70;;;;;;;;;;5054263;28;20437;-74
2023/09/09 07:57:20;;;;;;;8.43;7.73;;;;;;;;;;5056994;28;20433;-74
2023/09/09 07:59:49;;;;;;;9.30;8.50;;;;;;;;;;5056446;28;20801;-74
2023/09/09 08:02:16;;;;;;;9.50;8.70;;;;;;;;;;5056891;28;20536;-73
2023/09/09 08:04:44;;;;;;;8.63;7.90;;;;;;;;;;5056933;28;20441;-74
2023/09/09 08:07:11;;;;;;;8.80;8.00;;;;;;;;;;5056956;28;20483;-74
2023/09/09 08:09:39;;;;;;;9.33;7.30;;;;;;;;;;5056787;28;20452;-74
2023/09/09 08:12:06;;;;;;;8.30;7.40;;;;;;;;;;5056369;28;20477;-74
2023/09/09 08:14:34;;;;;;;8.30;7.60;;;;;;;;;;5056397;28;20433;-74
2023/09/09 08:17:02;;;;;;;8.50;7.80;;;;;;;;;;5056357;28;20511;-74
2023/09/09 08:19:30;;;;;;;8.10;7.40;;;;;;;;;;5053319;28;20858;-74
2023/09/09 08:22:03;;;;;;;7.90;7.17;;;;;;;;;;5056729;28;20441;-74
2023/09/09 08:24:30;;;;;;;8.00;7.40;;;;;;;;;;5056094;28;20977;-74
2023/09/09 08:26:57;;;;;;;8.10;7.40;;;;;;;;;;5056324;28;20437;-74
2023/09/09 08:29:25;;;;;;;8.20;7.60;;;;;;;;;;5056242;28;20520;-74
2023/09/09 08:31:53;;;;;;;8.23;7.63;;;;;;;;;;5056301;28;20538;-74
2023/09/09 08:34:21;;;;;;;9.23;7.27;;;;;;;;;;5055958;28;20433;-74
2023/09/09 08:36:48;;;;;;;8.67;7.97;;;;;;;;;;5055990;28;20438;-74
2023/09/09 08:39:16;;;;;;;8.00;7.40;;;;;;;;;;5055707;28;20429;-74
2023/09/09 08:41:50;;;;;;;9.57;7.60;;;;;;;;;;5056133;28;20453;-74
2023/09/09 08:44:28;;;;;;;7.80;7.20;;;;;;;;;;5056034;28;20508;-74
2023/09/09 08:46:56;;;;;;;8.60;7.53;;;;;;;;;;5055765;28;20508;-74
2023/09/09 08:49:29;;;;;;;8.13;7.53;;;;;;;;;;5055477;28;20430;-74
2023/09/09 08:51:59;;;;;;;7.80;7.00;;;;;;;;;;5055989;28;20461;-74
2023/09/09 08:54:27;;;;;;;7.63;7.03;;;;;;;;;;5055773;28;20485;-74
2023/09/09 08:56:54;;;;;;;7.33;6.70;;;;;;;;;;5055848;28;20445;-74
2023/09/09 08:59:23;;;;;;;7.33;6.63;;;;;;;;;;5055597;28;20998;-75
2023/09/09 09:01:53;;;;;;;8.90;7.10;;;;;;;;;;5055739;28;20848;-74
2023/09/09 09:04:23;;;;;;;8.50;7.80;;;;;;;;;;5055291;28;20429;-74
2023/09/09 09:06:56;;;;;;;8.50;7.80;;;;;;;;;;5054135;28;20418;-74
2023/09/09 09:09:23;;;;;;;7.47;6.77;;;;;;;;;;5055632;28;20429;-74
2023/09/09 09:11:51;;;;;;;7.27;6.67;;;;;;;;;;5055552;28;20859;-74
2023/09/09 09:14:18;;;;;;;8.20;7.50;;;;;;;;;;5055162;28;20429;-74
2023/09/09 09:16:46;;;;;;;7.70;7.00;;;;;;;;;;5055231;28;20935;-74
2023/09/09 09:19:16;;;;;;;7.50;6.90;;;;;;;;;;5055331;28;20514;-73
2023/09/09 09:21:49;;;;;;;7.40;6.80;;;;;;;;;;5054975;28;20433;-74
2023/09/09 09:24:23;;;;;;;7.73;7.13;;;;;;;;;;5055317;28;20428;-74
2023/09/09 09:26:50;;;;;;;6.67;6.00;;;;;;;;;;5055049;28;20914;-74
2023/09/09 09:29:17;;;;;;;7.37;6.67;;;;;;;;;;5055098;28;20937;-74
2023/09/09 09:31:51;;;;;;;7.00;6.50;;;;;;;;;;5055118;28;20436;-74
2023/09/09 09:34:19;;;;;;;7.67;7.07;;;;;;;;;;5055038;28;20421;-74
2023/09/09 09:36:51;;;;;;;7.00;6.40;;;;;;;;;;5055121;28;20841;-74
2023/09/09 09:39:19;;;;;;;7.37;6.77;;;;;;;;;;5054973;28;20787;-74
2023/09/09 09:41:48;;;;;;;7.40;6.90;;;;;;;;;;5054620;28;20527;-74
2023/09/09 09:44:22;;;;;;;7.37;6.87;;;;;;;;;;5054582;28;20475;-73
2023/09/09 09:47:02;;;;;;;6.67;6.17;;;;;;;;;;5055321;28;20421;-74
2023/09/09 09:49:37;;;;;;;7.70;7.03;;;;;;;;;;5054708;28;20515;-74
2023/09/09 09:52:05;;;;;;;7.07;6.57;;;;;;;;;;5054590;28;20517;-74
2023/09/09 09:54:34;;;;;;;7.00;6.40;;;;;;;;;;5054466;28;20467;-74
2023/09/09 09:57:07;;;;;;;6.80;6.20;;;;;;;;;;5054798;28;20433;-74
2023/09/09 09:59:35;;;;;;;7.93;7.23;;;;;;;;;;5054672;28;20468;-74
2023/09/09 10:02:03;;;;;;;7.23;6.60;;;;;;;;;;5054554;28;20530;-74
2023/09/09 10:04:35;;;;;;;7.10;6.40;;;;;;;;;;5054277;28;20440;-74
2023/09/09 10:07:06;;;;;;;7.70;7.00;;;;;;;;;;5055023;28;20455;-74
2023/09/09 10:09:41;;;;;;;7.23;6.60;;;;;;;;;;5054170;28;20269;-74
2023/09/09 10:12:12;;;;;;;6.87;6.33;;;;;;;;;;5054036;28;20438;-74
2023/09/09 10:14:41;;;;;;;7.10;6.50;;;;;;;;;;5054616;28;20460;-74
2023/09/09 10:17:09;;;;;;;6.93;6.33;;;;;;;;;;5053779;28;20486;-74
2023/09/09 10:19:37;;;;;;;6.57;6.07;;;;;;;;;;5054030;28;20407;-74
2023/09/09 10:22:06;;;;;;;6.38;5.88;;;;;;;;;;5054012;28;20278;-74
2023/09/09 10:24:33;;;;;;;6.97;6.38;;;;;;;;;;5053832;28;20221;-74
2023/09/09 10:27:03;;;;;;;7.70;7.00;;;;;;;;;;5054098;28;20434;-74
2023/09/09 10:29:31;;;;;;;8.70;7.88;;;;;;;;;;5054159;28;20194;-74
2023/09/09 10:32:01;;;;;;;7.13;6.55;;;;;;;;;;5053818;28;20225;-74
2023/09/09 10:34:30;;;;;;;7.15;6.60;;;;;;;;;;5054033;28;20197;-74
2023/09/09 10:37:00;;;;;;;6.72;6.05;;;;;;;;;;5053878;28;20190;-74
2023/09/09 10:39:27;;;;;;;6.68;6.18;;;;;;;;;;5053029;28;20194;-74
2023/09/09 10:41:55;;;;;;;9.75;6.70;;;;;;;;;;5053802;28;20224;-74
2023/09/09 10:44:25;;;;;;;6.03;5.53;;;;;;;;;;5053626;28;20700;-74
2023/09/09 10:46:56;;;;;;;6.95;6.28;;;;;;;;;;5053562;28;20190;-74
2023/09/09 10:49:27;;;;;;;5.90;5.40;;;;;;;;;;5053541;28;20417;-75
2023/09/09 10:51:58;;;;;;;8.50;6.40;;;;;;;;;;5053459;28;20501;-74
2023/09/09 10:54:26;;;;;;;6.97;6.33;;;;;;;;;;5053598;28;20184;-74
2023/09/09 10:56:55;;;;;;;6.50;6.00;;;;;;;;;;5053278;28;20463;-74
2023/09/09 10:59:23;;;;;;;7.10;6.60;;;;;;;;;;5053428;28;20328;-74
2023/09/09 11:02:09;;;;;;;6.67;6.10;;;;;;;;;;5053327;28;20934;-74
2023/09/09 11:04:40;;;;;;;7.40;6.57;;;;;;;;;;5053314;28;20416;-74
2023/09/09 11:07:08;;;;;;;6.73;6.13;;;;;;;;;;5053662;28;20421;-74
2023/09/09 11:09:36;;;;;;;6.40;5.90;;;;;;;;;;5053256;28;20436;-76
2023/09/09 11:12:13;;;;;;;6.37;5.87;;;;;;;;;;5052407;28;20428;-75
2023/09/09 11:14:43;;;;;;;7.20;6.50;;;;;;;;;;5053335;28;20428;-75
2023/09/09 11:17:11;;;;;;;7.27;6.77;;;;;;;;;;5053395;28;20440;-74
2023/09/09 11:19:41;;;;;;;6.43;5.67;;;;;;;;;;5053258;28;20711;-75
2023/09/09 11:22:09;;;;;;;6.90;6.40;;;;;;;;;;5053200;28;20823;-75
2023/09/09 11:24:36;;;;;;;6.97;6.40;;;;;;;;;;5052906;28;20814;-75
2023/09/09 11:27:04;;;;;;;6.67;6.07;;;;;;;;;;5052957;28;20519;-74
2023/09/09 11:29:32;;;;;;;6.60;6.00;;;;;;;;;;5052380;28;20909;-75
2023/09/09 11:31:59;;;;;;;6.53;6.00;;;;;;;;;;5053008;28;20432;-75
2023/09/09 11:34:31;;;;;;;7.23;6.10;;;;;;;;;;5052864;28;20445;-75
2023/09/09 11:37:00;;;;;;;6.10;5.60;;;;;;;;;;5053028;28;20428;-75
2023/09/09 11:39:28;;;;;;;6.50;5.90;;;;;;;;;;5052825;28;20472;-75
2023/09/09 11:41:55;;;;;;;6.07;5.57;;;;;;;;;;5052533;28;20457;-75
2023/09/09 11:44:23;;;;;;;6.60;5.70;;;;;;;;;;5052694;28;20492;-75
2023/09/09 11:46:50;;;;;;;6.23;5.73;;;;;;;;;;5053082;28;20522;-74
2023/09/09 11:49:18;;;;;;;6.40;5.80;;;;;;;;;;5052843;28;20437;-74
2023/09/09 11:51:46;;;;;;;6.43;5.90;;;;;;;;;;5053129;28;20515;-74
2023/09/09 11:54:20;;;;;;;6.50;5.90;;;;;;;;;;5052748;28;20455;-74
2023/09/09 11:56:48;;;;;;;6.57;6.07;;;;;;;;;;5052312;28;20923;-74
2023/09/09 11:59:15;;;;;;;6.20;5.60;;;;;;;;;;5053058;28;20464;-74
2023/09/09 12:01:43;;;;;;;7.23;5.90;;;;;;;;;;5052615;28;20443;-74
2023/09/09 12:04:11;;;;;;;6.93;6.33;;;;;;;;;;5052368;28;20472;-74
2023/09/09 12:06:39;;;;;;;6.27;5.77;;;;;;;;;;5052619;28;20425;-74
2023/09/09 12:09:07;;;;;;;6.23;5.73;;;;;;;;;;5052449;28;20444;-74
2023/09/09 12:11:37;;;;;;;6.47;5.50;;;;;;;;;;5051854;28;20429;-75
2023/09/09 12:14:05;;;;;;;6.63;5.93;;;;;;;;;;5052828;28;20441;-74
2023/09/09 12:16:36;;;;;;;7.07;5.50;;;;;;;;;;5052782;28;20779;-75
2023/09/09 12:19:04;;;;;;;6.20;5.60;;;;;;;;;;5051429;28;20448;-74
2023/09/09 12:21:31;;;;;;;7.37;5.47;;;;;;;;;;5052452;28;20543;-75
2023/09/09 12:23:59;;;;;;;6.40;5.80;;;;;;;;;;5052412;28;20963;-74
2023/09/09 12:26:27;;;;;;;6.57;6.00;;;;;;;;;;5052266;28;20464;-74
2023/09/09 12:29:09;;;;;;;7.00;5.70;;;;;;;;;;5052214;28;20510;-74
2023/09/09 12:31:50;;;;;;;6.57;6.07;;;;;;;;;;5052765;28;20456;-75
2023/09/09 12:34:19;;;;;;;7.40;6.00;;;;;;;;;;5052426;28;20421;-74
2023/09/09 12:36:47;;;;;;;6.00;5.40;;;;;;;;;;5052291;28;20934;-74
2023/09/09 12:39:20;;;;;;;6.70;6.10;;;;;;;;;;5052353;28;20495;-74
2023/09/09 12:41:58;;;;;;;6.87;6.27;;;32.80;40.50;;;;;;5054825;28;20422;-74
2023/09/09 12:44:26;;;;;;;6.50;5.73;;;48.90;16.60;;;;;;5056088;28;20547;-74
2023/09/09 12:46:54;;;;;;;6.80;5.93;;;47.60;17.60;;;;;;5055865;28;20864;-74
2023/09/09 12:49:21;;;;;;;6.50;5.83;;;46.80;17.90;;;;;;5054821;28;20943;-74
2023/09/09 12:51:49;;;;;;;5.87;5.37;;;45.90;18.60;;;;;;5055613;28;20433;-74
2023/09/09 12:54:15;;;;;;;6.93;5.93;;;45.10;19.60;;;;;;5055493;28;20433;-74
2023/09/09 12:56:43;;;;;;;6.57;5.80;;;44.30;20.20;;;;;;5055524;28;20429;-74
2023/09/09 12:59:09;;;;;;;6.10;5.50;;;43.40;20.80;;;;;;5055350;28;20489;-73
2023/09/09 13:01:38;;;;;;;8.40;5.80;;;42.70;21.30;;;;;;5055476;28;20865;-74
2023/09/09 13:04:05;;;;;;;7.17;6.47;;;42.00;21.90;;;;;;5055742;28;20469;-74
2023/09/09 13:06:32;;;;;;;7.27;6.60;;;41.40;22.90;;;;;;5055399;28;20490;-73
2023/09/09 13:09:00;;;;;;;6.70;5.60;;;40.90;23.20;;;;;;5054714;28;20437;-74
2023/09/09 13:11:30;;;;;;;6.20;5.60;;;40.20;24.20;;;;;;5055618;28;20523;-74
2023/09/09 13:13:57;;;;;;;7.40;6.70;;;39.70;24.50;;;;;;5055132;28;20866;-74
2023/09/09 13:16:24;;;;;;;9.07;6.23;;;39.30;25.00;;;;;;5055533;28;20836;-74
2023/09/09 13:18:52;;;;;;;9.00;5.80;;;38.80;25.50;;;;;;5055334;28;20525;-74
2023/09/09 13:21:19;;;;;;;7.07;5.90;;;38.40;25.70;;;;;;5055166;28;20471;-74
2023/09/09 13:23:46;;;;;;;6.30;5.70;;;38.00;26.50;;;;;;5055294;28;20865;-74
2023/09/09 13:26:13;;;;;;;7.00;5.90;;;37.70;26.50;;;;;;5055278;28;20443;-74
2023/09/09 13:28:40;;;;;;;6.60;5.90;;;37.40;27.20;;;;;;5054879;28;20831;-74
2023/09/09 13:31:07;;;;;;;5.80;5.20;;;37.20;27.30;;;;;;5054992;28;20507;-74
2023/09/09 13:33:34;;;;;;;8.10;6.20;;;36.90;27.80;;;;;;5055354;28;20489;-74
2023/09/09 13:36:02;;;;;;;5.67;5.07;;;36.70;27.50;;;;;;5054805;28;20997;-73
2023/09/09 13:38:30;;;;;;;6.70;5.97;;;36.60;27.60;;;;;;5054965;28;20430;-74
2023/09/09 13:40:57;;;;;;;11.60;5.77;;;36.40;27.70;;;;;;5055284;28;20503;-74
2023/09/09 13:43:24;;;;;;;7.60;6.53;;;36.10;28.40;;;;;;5054480;28;20975;-74
2023/09/09 13:45:53;;;;;;;7.40;5.80;;;36.00;28.60;;;;;;5054656;28;20438;-74
2023/09/09 13:48:20;;;;;;;7.27;5.33;;;35.80;28.60;;;;;;5054999;28;20424;-74
2023/09/09 13:50:47;;;;;;;8.83;5.87;;;35.70;28.40;;;;;;5054975;28;20833;-74
2023/09/09 13:53:15;;;;;;;6.27;5.67;;;35.50;28.40;;;;;;5053652;28;20491;-73
2023/09/09 13:55:42;;;;;;;8.73;5.53;;;35.40;29.30;;;;;;5054718;28;20503;-74
2023/09/09 13:58:09;;;;;;;6.40;5.70;;;35.10;29.50;;;;;;5054257;28;20470;-74
2023/09/09 14:00:36;;;;;;;7.00;6.30;;;35.00;30.50;;;;;;5054763;28;20479;-74
2023/09/09 14:03:03;;;;;;;7.60;6.57;;;34.90;29.90;;;;;;5054471;28;20441;-74
2023/09/09 14:05:30;;;;;;;7.20;6.00;;;34.70;30.20;;;;;;5034501;28;20449;-74
2023/09/09 14:07:57;;;;;;;7.83;5.93;;;34.70;29.90;;;;;;5034751;28;20492;-74
2023/09/09 14:10:25;;;;;;;6.80;5.90;;;34.60;29.80;;;;;;5053329;28;20469;-73
2023/09/09 14:12:52;;;;;;;7.13;6.43;;;34.60;29.80;;;;;;5054086;28;20438;-74
2023/09/09 14:15:20;;;;;;;7.23;6.40;;;34.40;29.90;;;;;;5054447;28;20433;-73
2023/09/09 14:17:47;;;;;;;6.40;5.80;;;34.40;30.50;;;;;;5054122;28;20445;-73
2023/09/09 14:20:14;;;;;;;6.50;5.30;;;34.20;30.00;;;;;;5054396;28;20946;-74
2023/09/09 14:22:41;;;;;;;8.53;6.23;;;34.00;30.60;;;;;;5054432;28;20430;-74
2023/09/09 14:25:09;;;;;;;7.57;5.50;;;33.80;30.80;;;;;;5053781;28;20481;-73
2023/09/09 14:27:38;;;;;;;5.57;4.97;;;33.50;31.20;;;;;;5053947;28;20911;-73